sensor_id;sensor_type;location;lat;lon;timestamp;P1;durP1;ratioP1;P2;durP2;ratioP2
7835;SDS011;3963;42.658;23.298;2023-04-03T00:01:25;5.33;;;3.00;;
7835;SDS011;3963;42.658;23.298;2023-04-03T00:03:51;5.60;;;3.00;;
7835;SDS011;3963;42.658;23.298;2023-04-03T00:06:18;4.67;;;3.40;;
7835;SDS011;3963;42.658;23.298;2023-04-03T00:08:45;3.97;;;2.83;;
7835;SDS011;3963;42.658;23.298;2023-04-03T00:11:14;4.83;;;3.00;;
7835;SDS011;3963;42.658;23.298;2023-04-03T00:13:41;3.93;;;3.00;;
7835;SDS011;3963;42.658;23.298;2023-04-03T00:16:08;7.20;;;3.00;;
7835;SDS011;3963;42.658;23.298;2023-04-03T00:18:37;3.60;;;3.10;;
7835;SDS011;3963;42.658;23.298;2023-04-03T00:21:05;4.33;;;2.10;;
7835;SDS011;3963;42.658;23.298;2023-04-03T00:23:32;5.40;;;2.60;;
7835;SDS011;3963;42.658;23.298;2023-04-03T00:25:59;3.47;;;2.40;;
7835;SDS011;3963;42.658;23.298;2023-04-03T00:28:28;2.73;;;1.90;;
7835;SDS011;3963;42.658;23.298;2023-04-03T00:30:54;3.00;;;2.27;;
7835;SDS011;3963;42.658;23.298;2023-04-03T00:33:21;3.37;;;2.20;;
7835;SDS011;3963;42.658;23.298;2023-04-03T00:35:49;3.53;;;2.27;;
7835;SDS011;3963;42.658;23.298;2023-04-03T00:38:16;5.47;;;2.27;;
7835;SDS011;3963;42.658;23.298;2023-04-03T00:40:44;5.20;;;2.80;;
7835;SDS011;3963;42.658;23.298;2023-04-03T00:43:14;3.00;;;2.27;;
7835;SDS011;3963;42.658;23.298;2023-04-03T00:45:44;4.37;;;2.90;;
7835;SDS011;3963;42.658;23.298;2023-04-03T00:48:13;3.77;;;2.20;;
7835;SDS011;3963;42.658;23.298;2023-04-03T00:50:43;2.60;;;2.27;;
7835;SDS011;3963;42.658;23.298;2023-04-03T00:53:12;4.17;;;2.57;;
7835;SDS011;3963;42.658;23.298;2023-04-03T00:55:42;2.90;;;2.13;;
7835;SDS011;3963;42.658;23.298;2023-04-03T00:58:10;3.63;;;2.30;;
7835;SDS011;3963;42.658;23.298;2023-04-03T01:00:39;4.67;;;2.40;;
7835;SDS011;3963;42.658;23.298;2023-04-03T01:03:14;4.30;;;2.43;;
7835;SDS011;3963;42.658;23.298;2023-04-03T01:05:40;4.13;;;2.00;;
7835;SDS011;3963;42.658;23.298;2023-04-03T01:08:07;2.67;;;2.10;;
7835;SDS011;3963;42.658;23.298;2023-04-03T01:10:34;3.20;;;2.40;;
7835;SDS011;3963;42.658;23.298;2023-04-03T01:13:01;4.73;;;2.63;;
7835;SDS011;3963;42.658;23.298;2023-04-03T01:15:43;4.73;;;2.50;;
7835;SDS011;3963;42.658;23.298;2023-04-03T01:18:10;3.40;;;2.80;;
7835;SDS011;3963;42.658;23.298;2023-04-03T01:20:49;5.97;;;3.20;;
7835;SDS011;3963;42.658;23.298;2023-04-03T01:26:34;4.67;;;2.93;;
7835;SDS011;3963;42.658;23.298;2023-04-03T01:29:01;4.60;;;3.00;;
7835;SDS011;3963;42.658;23.298;2023-04-03T01:31:30;3.30;;;2.60;;
7835;SDS011;3963;42.658;23.298;2023-04-03T01:34:01;5.73;;;2.80;;
7835;SDS011;3963;42.658;23.298;2023-04-03T01:36:29;3.87;;;2.60;;
7835;SDS011;3963;42.658;23.298;2023-04-03T01:38:57;5.13;;;2.87;;
7835;SDS011;3963;42.658;23.298;2023-04-03T01:41:26;3.07;;;2.57;;
7835;SDS011;3963;42.658;23.298;2023-04-03T01:43:54;4.37;;;2.77;;
7835;SDS011;3963;42.658;23.298;2023-04-03T01:46:21;3.37;;;2.80;;
7835;SDS011;3963;42.658;23.298;2023-04-03T01:48:48;5.23;;;3.00;;
7835;SDS011;3963;42.658;23.298;2023-04-03T01:51:16;4.30;;;3.30;;
7835;SDS011;3963;42.658;23.298;2023-04-03T01:53:43;4.37;;;3.30;;
7835;SDS011;3963;42.658;23.298;2023-04-03T01:56:10;5.63;;;2.80;;
7835;SDS011;3963;42.658;23.298;2023-04-03T01:58:37;4.93;;;3.10;;
7835;SDS011;3963;42.658;23.298;2023-04-03T02:01:03;5.07;;;3.00;;
7835;SDS011;3963;42.658;23.298;2023-04-03T02:03:31;5.17;;;3.23;;
7835;SDS011;3963;42.658;23.298;2023-04-03T02:05:58;7.23;;;3.20;;
7835;SDS011;3963;42.658;23.298;2023-04-03T02:08:26;4.43;;;3.20;;
7835;SDS011;3963;42.658;23.298;2023-04-03T02:10:53;6.73;;;4.00;;
7835;SDS011;3963;42.658;23.298;2023-04-03T02:13:20;6.60;;;4.67;;
7835;SDS011;3963;42.658;23.298;2023-04-03T02:15:47;7.30;;;4.70;;
7835;SDS011;3963;42.658;23.298;2023-04-03T02:18:14;7.17;;;4.27;;
7835;SDS011;3963;42.658;23.298;2023-04-03T02:20:41;5.20;;;3.57;;
7835;SDS011;3963;42.658;23.298;2023-04-03T02:23:08;4.80;;;3.50;;
7835;SDS011;3963;42.658;23.298;2023-04-03T02:25:37;7.73;;;3.33;;
7835;SDS011;3963;42.658;23.298;2023-04-03T02:28:04;5.97;;;3.60;;
7835;SDS011;3963;42.658;23.298;2023-04-03T02:30:31;6.57;;;3.67;;
7835;SDS011;3963;42.658;23.298;2023-04-03T02:32:58;5.77;;;3.10;;
7835;SDS011;3963;42.658;23.298;2023-04-03T02:35:25;5.43;;;3.53;;
7835;SDS011;3963;42.658;23.298;2023-04-03T02:37:51;5.17;;;3.53;;
7835;SDS011;3963;42.658;23.298;2023-04-03T02:40:18;5.50;;;3.73;;
7835;SDS011;3963;42.658;23.298;2023-04-03T02:42:47;7.80;;;4.53;;
7835;SDS011;3963;42.658;23.298;2023-04-03T02:45:13;8.73;;;3.97;;
7835;SDS011;3963;42.658;23.298;2023-04-03T02:47:40;7.53;;;3.93;;
7835;SDS011;3963;42.658;23.298;2023-04-03T02:50:07;8.63;;;4.20;;
7835;SDS011;3963;42.658;23.298;2023-04-03T02:52:34;7.30;;;4.00;;
7835;SDS011;3963;42.658;23.298;2023-04-03T02:55:01;7.50;;;3.90;;
7835;SDS011;3963;42.658;23.298;2023-04-03T02:57:28;9.03;;;5.23;;
7835;SDS011;3963;42.658;23.298;2023-04-03T02:59:57;7.97;;;4.10;;
7835;SDS011;3963;42.658;23.298;2023-04-03T03:02:23;5.60;;;3.73;;
7835;SDS011;3963;42.658;23.298;2023-04-03T03:04:50;6.60;;;3.63;;
7835;SDS011;3963;42.658;23.298;2023-04-03T03:07:17;9.10;;;3.80;;
7835;SDS011;3963;42.658;23.298;2023-04-03T03:09:43;11.93;;;6.30;;
7835;SDS011;3963;42.658;23.298;2023-04-03T03:12:10;11.30;;;4.40;;
7835;SDS011;3963;42.658;23.298;2023-04-03T03:14:37;14.00;;;5.20;;
7835;SDS011;3963;42.658;23.298;2023-04-03T03:17:05;9.07;;;4.40;;
7835;SDS011;3963;42.658;23.298;2023-04-03T03:19:32;7.07;;;4.20;;
7835;SDS011;3963;42.658;23.298;2023-04-03T03:21:59;7.13;;;3.93;;
7835;SDS011;3963;42.658;23.298;2023-04-03T03:24:28;11.60;;;4.10;;
7835;SDS011;3963;42.658;23.298;2023-04-03T03:26:55;9.13;;;4.70;;
7835;SDS011;3963;42.658;23.298;2023-04-03T03:29:21;8.33;;;4.43;;
7835;SDS011;3963;42.658;23.298;2023-04-03T03:31:48;11.17;;;5.20;;
7835;SDS011;3963;42.658;23.298;2023-04-03T03:34:17;11.17;;;5.13;;
7835;SDS011;3963;42.658;23.298;2023-04-03T03:36:44;9.37;;;4.53;;
7835;SDS011;3963;42.658;23.298;2023-04-03T03:39:11;9.90;;;5.23;;
7835;SDS011;3963;42.658;23.298;2023-04-03T03:41:38;9.63;;;5.37;;
7835;SDS011;3963;42.658;23.298;2023-04-03T03:44:05;10.50;;;5.87;;
7835;SDS011;3963;42.658;23.298;2023-04-03T03:46:31;11.13;;;5.27;;
7835;SDS011;3963;42.658;23.298;2023-04-03T03:48:58;11.73;;;5.57;;
7835;SDS011;3963;42.658;23.298;2023-04-03T03:51:26;9.90;;;5.57;;
7835;SDS011;3963;42.658;23.298;2023-04-03T03:53:53;10.47;;;5.80;;
7835;SDS011;3963;42.658;23.298;2023-04-03T03:56:20;12.43;;;5.97;;
7835;SDS011;3963;42.658;23.298;2023-04-03T03:58:47;20.23;;;7.10;;
7835;SDS011;3963;42.658;23.298;2023-04-03T04:01:14;13.30;;;7.90;;
7835;SDS011;3963;42.658;23.298;2023-04-03T04:03:41;15.20;;;7.10;;
7835;SDS011;3963;42.658;23.298;2023-04-03T04:06:08;14.53;;;7.73;;
7835;SDS011;3963;42.658;23.298;2023-04-03T04:08:37;14.80;;;8.10;;
7835;SDS011;3963;42.658;23.298;2023-04-03T04:11:04;21.97;;;10.47;;
7835;SDS011;3963;42.658;23.298;2023-04-03T04:13:31;25.57;;;11.90;;
7835;SDS011;3963;42.658;23.298;2023-04-03T04:15:58;30.87;;;16.63;;
7835;SDS011;3963;42.658;23.298;2023-04-03T04:18:24;15.27;;;9.27;;
7835;SDS011;3963;42.658;23.298;2023-04-03T04:20:51;18.27;;;10.07;;
7835;SDS011;3963;42.658;23.298;2023-04-03T04:23:18;23.27;;;11.43;;
7835;SDS011;3963;42.658;23.298;2023-04-03T04:25:47;30.37;;;12.87;;
7835;SDS011;3963;42.658;23.298;2023-04-03T04:28:14;24.97;;;11.97;;
7835;SDS011;3963;42.658;23.298;2023-04-03T04:30:41;20.30;;;11.00;;
7835;SDS011;3963;42.658;23.298;2023-04-03T04:33:08;34.03;;;16.80;;
7835;SDS011;3963;42.658;23.298;2023-04-03T04:35:35;47.00;;;23.50;;
7835;SDS011;3963;42.658;23.298;2023-04-03T04:38:02;49.00;;;23.30;;
7835;SDS011;3963;42.658;23.298;2023-04-03T04:40:29;41.57;;;19.07;;
7835;SDS011;3963;42.658;23.298;2023-04-03T04:42:59;26.63;;;14.40;;
7835;SDS011;3963;42.658;23.298;2023-04-03T04:45:25;30.83;;;11.80;;
7835;SDS011;3963;42.658;23.298;2023-04-03T04:47:54;21.10;;;11.70;;
7835;SDS011;3963;42.658;23.298;2023-04-03T04:50:21;26.30;;;12.43;;
7835;SDS011;3963;42.658;23.298;2023-04-03T04:52:48;22.27;;;11.20;;
7835;SDS011;3963;42.658;23.298;2023-04-03T04:55:15;25.23;;;9.90;;
7835;SDS011;3963;42.658;23.298;2023-04-03T04:57:41;22.23;;;10.40;;
7835;SDS011;3963;42.658;23.298;2023-04-03T05:00:11;21.90;;;9.70;;
7835;SDS011;3963;42.658;23.298;2023-04-03T05:02:38;23.27;;;10.50;;
7835;SDS011;3963;42.658;23.298;2023-04-03T05:05:05;23.43;;;9.57;;
7835;SDS011;3963;42.658;23.298;2023-04-03T05:07:32;22.77;;;10.40;;
7835;SDS011;3963;42.658;23.298;2023-04-03T05:10:00;20.73;;;9.00;;
7835;SDS011;3963;42.658;23.298;2023-04-03T05:12:27;22.43;;;8.97;;
7835;SDS011;3963;42.658;23.298;2023-04-03T05:14:54;18.87;;;9.23;;
7835;SDS011;3963;42.658;23.298;2023-04-03T05:17:22;23.73;;;8.53;;
7835;SDS011;3963;42.658;23.298;2023-04-03T05:19:49;25.67;;;9.00;;
7835;SDS011;3963;42.658;23.298;2023-04-03T05:22:16;19.97;;;8.00;;
7835;SDS011;3963;42.658;23.298;2023-04-03T05:24:42;23.40;;;9.10;;
7835;SDS011;3963;42.658;23.298;2023-04-03T05:27:09;29.57;;;9.33;;
7835;SDS011;3963;42.658;23.298;2023-04-03T05:29:36;19.13;;;8.20;;
7835;SDS011;3963;42.658;23.298;2023-04-03T05:32:03;22.60;;;9.13;;
7835;SDS011;3963;42.658;23.298;2023-04-03T05:34:32;14.07;;;8.10;;
7835;SDS011;3963;42.658;23.298;2023-04-03T05:36:59;19.07;;;8.13;;
7835;SDS011;3963;42.658;23.298;2023-04-03T05:39:28;18.90;;;9.63;;
7835;SDS011;3963;42.658;23.298;2023-04-03T05:41:56;17.00;;;8.03;;
7835;SDS011;3963;42.658;23.298;2023-04-03T05:44:23;18.63;;;8.30;;
7835;SDS011;3963;42.658;23.298;2023-04-03T05:46:50;19.13;;;7.97;;
7835;SDS011;3963;42.658;23.298;2023-04-03T05:49:18;11.43;;;7.50;;
7835;SDS011;3963;42.658;23.298;2023-04-03T05:51:46;20.00;;;8.33;;
7835;SDS011;3963;42.658;23.298;2023-04-03T05:54:13;20.03;;;7.60;;
7835;SDS011;3963;42.658;23.298;2023-04-03T05:56:43;19.23;;;7.50;;
7835;SDS011;3963;42.658;23.298;2023-04-03T05:59:10;14.97;;;7.57;;
7835;SDS011;3963;42.658;23.298;2023-04-03T06:01:37;14.87;;;7.90;;
7835;SDS011;3963;42.658;23.298;2023-04-03T06:04:04;12.90;;;7.00;;
7835;SDS011;3963;42.658;23.298;2023-04-03T06:06:43;16.23;;;8.20;;
7835;SDS011;3963;42.658;23.298;2023-04-03T06:09:16;16.50;;;8.40;;
7835;SDS011;3963;42.658;23.298;2023-04-03T06:11:44;18.20;;;8.33;;
7835;SDS011;3963;42.658;23.298;2023-04-03T06:14:11;16.20;;;8.37;;
7835;SDS011;3963;42.658;23.298;2023-04-03T06:16:38;17.10;;;8.30;;
7835;SDS011;3963;42.658;23.298;2023-04-03T06:19:05;14.73;;;8.20;;
7835;SDS011;3963;42.658;23.298;2023-04-03T06:21:32;16.77;;;8.90;;
7835;SDS011;3963;42.658;23.298;2023-04-03T06:24:02;22.80;;;13.63;;
7835;SDS011;3963;42.658;23.298;2023-04-03T06:26:29;26.63;;;15.80;;
7835;SDS011;3963;42.658;23.298;2023-04-03T06:28:55;24.40;;;17.03;;
7835;SDS011;3963;42.658;23.298;2023-04-03T06:31:22;26.53;;;18.27;;
7835;SDS011;3963;42.658;23.298;2023-04-03T06:33:49;27.27;;;18.37;;
7835;SDS011;3963;42.658;23.298;2023-04-03T06:36:17;27.57;;;18.03;;
7835;SDS011;3963;42.658;23.298;2023-04-03T06:38:46;22.73;;;14.87;;
7835;SDS011;3963;42.658;23.298;2023-04-03T06:41:14;14.53;;;10.13;;
7835;SDS011;3963;42.658;23.298;2023-04-03T06:43:42;17.87;;;10.70;;
7835;SDS011;3963;42.658;23.298;2023-04-03T06:46:12;18.50;;;10.00;;
7835;SDS011;3963;42.658;23.298;2023-04-03T06:48:40;15.17;;;8.83;;
7835;SDS011;3963;42.658;23.298;2023-04-03T06:51:06;11.60;;;8.77;;
7835;SDS011;3963;42.658;23.298;2023-04-03T06:53:35;22.77;;;9.37;;
7835;SDS011;3963;42.658;23.298;2023-04-03T06:56:02;16.83;;;8.57;;
7835;SDS011;3963;42.658;23.298;2023-04-03T06:58:31;11.17;;;6.30;;
7835;SDS011;3963;42.658;23.298;2023-04-03T07:00:57;11.27;;;7.50;;
7835;SDS011;3963;42.658;23.298;2023-04-03T07:03:25;14.00;;;7.73;;
7835;SDS011;3963;42.658;23.298;2023-04-03T07:05:51;14.43;;;6.83;;
7835;SDS011;3963;42.658;23.298;2023-04-03T07:08:18;13.37;;;7.23;;
7835;SDS011;3963;42.658;23.298;2023-04-03T07:10:45;13.83;;;7.90;;
7835;SDS011;3963;42.658;23.298;2023-04-03T07:13:11;10.23;;;6.87;;
7835;SDS011;3963;42.658;23.298;2023-04-03T07:15:40;15.37;;;8.30;;
7835;SDS011;3963;42.658;23.298;2023-04-03T07:18:06;11.77;;;7.93;;
7835;SDS011;3963;42.658;23.298;2023-04-03T07:20:33;12.90;;;7.63;;
7835;SDS011;3963;42.658;23.298;2023-04-03T07:23:00;17.40;;;7.80;;
7835;SDS011;3963;42.658;23.298;2023-04-03T07:25:27;11.13;;;7.57;;
7835;SDS011;3963;42.658;23.298;2023-04-03T07:27:54;14.73;;;9.87;;
7835;SDS011;3963;42.658;23.298;2023-04-03T07:30:21;36.73;;;20.23;;
7835;SDS011;3963;42.658;23.298;2023-04-03T07:32:49;15.33;;;8.53;;
7835;SDS011;3963;42.658;23.298;2023-04-03T07:35:16;14.03;;;7.43;;
7835;SDS011;3963;42.658;23.298;2023-04-03T07:37:43;14.37;;;7.80;;
7835;SDS011;3963;42.658;23.298;2023-04-03T07:40:10;14.83;;;7.33;;
7835;SDS011;3963;42.658;23.298;2023-04-03T07:42:37;13.30;;;6.43;;
7835;SDS011;3963;42.658;23.298;2023-04-03T07:45:04;10.50;;;5.43;;
7835;SDS011;3963;42.658;23.298;2023-04-03T07:47:31;8.23;;;5.03;;
7835;SDS011;3963;42.658;23.298;2023-04-03T07:49:59;9.07;;;4.93;;
7835;SDS011;3963;42.658;23.298;2023-04-03T07:52:26;7.07;;;4.73;;
7835;SDS011;3963;42.658;23.298;2023-04-03T07:54:53;8.07;;;4.83;;
7835;SDS011;3963;42.658;23.298;2023-04-03T07:57:20;10.73;;;5.57;;
7835;SDS011;3963;42.658;23.298;2023-04-03T07:59:46;6.30;;;4.43;;
7835;SDS011;3963;42.658;23.298;2023-04-03T08:02:13;7.47;;;3.57;;
7835;SDS011;3963;42.658;23.298;2023-04-03T08:04:40;7.10;;;4.27;;
7835;SDS011;3963;42.658;23.298;2023-04-03T08:07:08;7.10;;;4.17;;
7835;SDS011;3963;42.658;23.298;2023-04-03T08:09:35;6.73;;;3.73;;
7835;SDS011;3963;42.658;23.298;2023-04-03T08:12:02;5.93;;;4.40;;
7835;SDS011;3963;42.658;23.298;2023-04-03T08:14:30;7.17;;;4.77;;
7835;SDS011;3963;42.658;23.298;2023-04-03T08:16:59;7.53;;;4.77;;
7835;SDS011;3963;42.658;23.298;2023-04-03T08:19:28;9.23;;;5.00;;
7835;SDS011;3963;42.658;23.298;2023-04-03T08:21:54;11.27;;;5.43;;
7835;SDS011;3963;42.658;23.298;2023-04-03T08:24:23;12.33;;;5.77;;
7835;SDS011;3963;42.658;23.298;2023-04-03T08:26:49;9.73;;;6.33;;
7835;SDS011;3963;42.658;23.298;2023-04-03T08:29:16;10.07;;;6.87;;
7835;SDS011;3963;42.658;23.298;2023-04-03T08:31:43;10.23;;;6.50;;
7835;SDS011;3963;42.658;23.298;2023-04-03T08:34:10;12.93;;;7.97;;
7835;SDS011;3963;42.658;23.298;2023-04-03T08:36:38;17.30;;;7.50;;
7835;SDS011;3963;42.658;23.298;2023-04-03T08:39:05;10.43;;;7.10;;
7835;SDS011;3963;42.658;23.298;2023-04-03T08:41:33;11.00;;;7.40;;
7835;SDS011;3963;42.658;23.298;2023-04-03T08:44:03;18.57;;;7.37;;
7835;SDS011;3963;42.658;23.298;2023-04-03T08:46:44;9.40;;;6.87;;
7835;SDS011;3963;42.658;23.298;2023-04-03T08:49:22;16.30;;;8.90;;
7835;SDS011;3963;42.658;23.298;2023-04-03T08:51:52;14.67;;;8.73;;
7835;SDS011;3963;42.658;23.298;2023-04-03T08:54:25;18.83;;;10.27;;
7835;SDS011;3963;42.658;23.298;2023-04-03T08:56:57;23.73;;;13.53;;
7835;SDS011;3963;42.658;23.298;2023-04-03T08:59:27;27.43;;;12.43;;
7835;SDS011;3963;42.658;23.298;2023-04-03T09:01:59;27.57;;;11.20;;
7835;SDS011;3963;42.658;23.298;2023-04-03T09:04:32;18.23;;;11.97;;
7835;SDS011;3963;42.658;23.298;2023-04-03T09:07:02;17.90;;;10.60;;
7835;SDS011;3963;42.658;23.298;2023-04-03T09:09:35;19.03;;;11.10;;
7835;SDS011;3963;42.658;23.298;2023-04-03T09:12:11;18.93;;;9.40;;
7835;SDS011;3963;42.658;23.298;2023-04-03T09:14:44;17.50;;;10.07;;
7835;SDS011;3963;42.658;23.298;2023-04-03T09:17:21;16.93;;;10.63;;
7835;SDS011;3963;42.658;23.298;2023-04-03T09:19:58;20.63;;;10.57;;
7835;SDS011;3963;42.658;23.298;2023-04-03T09:22:32;19.93;;;9.97;;
7835;SDS011;3963;42.658;23.298;2023-04-03T09:25:05;19.00;;;10.77;;
7835;SDS011;3963;42.658;23.298;2023-04-03T09:27:40;14.50;;;8.53;;
7835;SDS011;3963;42.658;23.298;2023-04-03T09:30:11;10.63;;;7.20;;
7835;SDS011;3963;42.658;23.298;2023-04-03T09:32:41;16.77;;;8.03;;
7835;SDS011;3963;42.658;23.298;2023-04-03T09:35:16;11.63;;;6.40;;
7835;SDS011;3963;42.658;23.298;2023-04-03T09:37:47;4.40;;;3.30;;
7835;SDS011;3963;42.658;23.298;2023-04-03T09:40:36;4.83;;;2.90;;
7835;SDS011;3963;42.658;23.298;2023-04-03T09:43:25;7.33;;;3.20;;
7835;SDS011;3963;42.658;23.298;2023-04-03T09:45:54;3.30;;;2.87;;
7835;SDS011;3963;42.658;23.298;2023-04-03T09:48:22;3.90;;;2.20;;
7835;SDS011;3963;42.658;23.298;2023-04-03T09:51:00;5.70;;;2.63;;
7835;SDS011;3963;42.658;23.298;2023-04-03T09:53:29;16.00;;;5.93;;
7835;SDS011;3963;42.658;23.298;2023-04-03T09:55:59;9.37;;;4.50;;
7835;SDS011;3963;42.658;23.298;2023-04-03T09:58:30;6.80;;;2.90;;
7835;SDS011;3963;42.658;23.298;2023-04-03T10:01:00;6.40;;;3.10;;
7835;SDS011;3963;42.658;23.298;2023-04-03T10:03:30;4.20;;;1.90;;
7835;SDS011;3963;42.658;23.298;2023-04-03T10:05:59;5.30;;;2.37;;
7835;SDS011;3963;42.658;23.298;2023-04-03T10:08:28;4.90;;;2.50;;
7835;SDS011;3963;42.658;23.298;2023-04-03T10:11:09;5.30;;;2.60;;
7835;SDS011;3963;42.658;23.298;2023-04-03T10:13:51;3.73;;;1.97;;
7835;SDS011;3963;42.658;23.298;2023-04-03T10:16:21;2.30;;;2.00;;
7835;SDS011;3963;42.658;23.298;2023-04-03T10:18:54;4.87;;;2.10;;
7835;SDS011;3963;42.658;23.298;2023-04-03T10:21:29;2.97;;;2.33;;
7835;SDS011;3963;42.658;23.298;2023-04-03T10:24:07;6.60;;;2.50;;
7835;SDS011;3963;42.658;23.298;2023-04-03T10:26:39;6.40;;;2.30;;
7835;SDS011;3963;42.658;23.298;2023-04-03T10:29:18;3.73;;;2.63;;
7835;SDS011;3963;42.658;23.298;2023-04-03T10:31:56;5.20;;;2.50;;
7835;SDS011;3963;42.658;23.298;2023-04-03T10:34:29;25.67;;;7.57;;
7835;SDS011;3963;42.658;23.298;2023-04-03T10:37:01;5.40;;;3.03;;
7835;SDS011;3963;42.658;23.298;2023-04-03T10:39:39;16.60;;;6.23;;
7835;SDS011;3963;42.658;23.298;2023-04-03T10:42:15;17.43;;;6.17;;
7835;SDS011;3963;42.658;23.298;2023-04-03T10:44:55;14.43;;;5.13;;
7835;SDS011;3963;42.658;23.298;2023-04-03T10:47:29;8.03;;;3.03;;
7835;SDS011;3963;42.658;23.298;2023-04-03T10:50:02;5.63;;;3.50;;
7835;SDS011;3963;42.658;23.298;2023-04-03T10:52:39;6.27;;;2.93;;
7835;SDS011;3963;42.658;23.298;2023-04-03T10:55:17;5.43;;;2.87;;
7835;SDS011;3963;42.658;23.298;2023-04-03T10:57:57;6.10;;;2.90;;
7835;SDS011;3963;42.658;23.298;2023-04-03T11:00:29;4.40;;;2.37;;
7835;SDS011;3963;42.658;23.298;2023-04-03T11:03:03;8.33;;;2.10;;
7835;SDS011;3963;42.658;23.298;2023-04-03T11:05:34;3.57;;;2.30;;
7835;SDS011;3963;42.658;23.298;2023-04-03T11:08:08;5.10;;;2.20;;
7835;SDS011;3963;42.658;23.298;2023-04-03T11:10:44;5.63;;;2.83;;
7835;SDS011;3963;42.658;23.298;2023-04-03T11:13:14;5.17;;;3.13;;
7835;SDS011;3963;42.658;23.298;2023-04-03T11:15:47;4.40;;;3.27;;
7835;SDS011;3963;42.658;23.298;2023-04-03T11:18:15;6.03;;;3.53;;
7835;SDS011;3963;42.658;23.298;2023-04-03T11:20:48;9.60;;;4.70;;
7835;SDS011;3963;42.658;23.298;2023-04-03T11:23:23;8.97;;;3.53;;
7835;SDS011;3963;42.658;23.298;2023-04-03T11:25:53;6.83;;;4.23;;
7835;SDS011;3963;42.658;23.298;2023-04-03T11:28:23;9.93;;;4.00;;
7835;SDS011;3963;42.658;23.298;2023-04-03T11:30:52;5.57;;;3.80;;
7835;SDS011;3963;42.658;23.298;2023-04-03T11:33:37;5.70;;;4.00;;
7835;SDS011;3963;42.658;23.298;2023-04-03T11:36:12;6.43;;;3.70;;
7835;SDS011;3963;42.658;23.298;2023-04-03T11:38:46;6.77;;;3.87;;
7835;SDS011;3963;42.658;23.298;2023-04-03T11:41:16;8.73;;;4.13;;
7835;SDS011;3963;42.658;23.298;2023-04-03T11:43:55;6.77;;;5.00;;
7835;SDS011;3963;42.658;23.298;2023-04-03T11:46:24;6.57;;;4.87;;
7835;SDS011;3963;42.658;23.298;2023-04-03T11:58:14;7.57;;;5.53;;
7835;SDS011;3963;42.658;23.298;2023-04-03T12:04:10;10.63;;;6.77;;
7835;SDS011;3963;42.658;23.298;2023-04-03T12:06:50;7.50;;;4.83;;
7835;SDS011;3963;42.658;23.298;2023-04-03T12:09:22;8.50;;;4.67;;
7835;SDS011;3963;42.658;23.298;2023-04-03T12:11:52;10.17;;;4.27;;
7835;SDS011;3963;42.658;23.298;2023-04-03T12:14:21;4.17;;;3.27;;
7835;SDS011;3963;42.658;23.298;2023-04-03T12:16:50;5.70;;;3.60;;
7835;SDS011;3963;42.658;23.298;2023-04-03T12:19:34;7.53;;;4.20;;
7835;SDS011;3963;42.658;23.298;2023-04-03T12:22:09;6.27;;;4.40;;
7835;SDS011;3963;42.658;23.298;2023-04-03T12:24:38;10.37;;;4.70;;
7835;SDS011;3963;42.658;23.298;2023-04-03T12:27:11;8.73;;;5.80;;
7835;SDS011;3963;42.658;23.298;2023-04-03T12:29:46;10.73;;;5.87;;
7835;SDS011;3963;42.658;23.298;2023-04-03T12:32:21;10.07;;;6.33;;
7835;SDS011;3963;42.658;23.298;2023-04-03T12:35:09;11.50;;;5.93;;
7835;SDS011;3963;42.658;23.298;2023-04-03T12:37:48;8.60;;;5.77;;
7835;SDS011;3963;42.658;23.298;2023-04-03T12:40:30;5.80;;;4.80;;
7835;SDS011;3963;42.658;23.298;2023-04-03T12:43:08;7.37;;;5.33;;
7835;SDS011;3963;42.658;23.298;2023-04-03T12:45:44;9.23;;;5.17;;
7835;SDS011;3963;42.658;23.298;2023-04-03T12:48:18;5.57;;;4.73;;
7835;SDS011;3963;42.658;23.298;2023-04-03T12:50:54;12.13;;;5.80;;
7835;SDS011;3963;42.658;23.298;2023-04-03T12:53:24;8.20;;;5.90;;
7835;SDS011;3963;42.658;23.298;2023-04-03T12:55:55;11.17;;;5.80;;
7835;SDS011;3963;42.658;23.298;2023-04-03T12:58:23;10.60;;;5.87;;
7835;SDS011;3963;42.658;23.298;2023-04-03T13:00:59;9.67;;;5.57;;
7835;SDS011;3963;42.658;23.298;2023-04-03T13:03:28;11.33;;;6.33;;
7835;SDS011;3963;42.658;23.298;2023-04-03T13:05:58;8.77;;;6.07;;
7835;SDS011;3963;42.658;23.298;2023-04-03T13:08:29;8.33;;;5.33;;
7835;SDS011;3963;42.658;23.298;2023-04-03T13:10:58;10.23;;;5.43;;
7835;SDS011;3963;42.658;23.298;2023-04-03T13:13:27;10.80;;;6.67;;
7835;SDS011;3963;42.658;23.298;2023-04-03T13:15:54;11.40;;;6.23;;
7835;SDS011;3963;42.658;23.298;2023-04-03T13:18:25;13.60;;;8.03;;
7835;SDS011;3963;42.658;23.298;2023-04-03T13:21:00;11.40;;;7.17;;
7835;SDS011;3963;42.658;23.298;2023-04-03T13:23:29;16.03;;;6.63;;
7835;SDS011;3963;42.658;23.298;2023-04-03T13:25:57;7.80;;;5.67;;
7835;SDS011;3963;42.658;23.298;2023-04-03T13:28:28;9.73;;;7.00;;
7835;SDS011;3963;42.658;23.298;2023-04-03T13:30:59;10.77;;;7.20;;
7835;SDS011;3963;42.658;23.298;2023-04-03T13:33:30;12.47;;;7.37;;
7835;SDS011;3963;42.658;23.298;2023-04-03T13:36:04;13.23;;;7.93;;
7835;SDS011;3963;42.658;23.298;2023-04-03T13:38:33;10.23;;;7.10;;
7835;SDS011;3963;42.658;23.298;2023-04-03T13:41:02;14.13;;;7.97;;
7835;SDS011;3963;42.658;23.298;2023-04-03T13:43:31;9.83;;;7.33;;
7835;SDS011;3963;42.658;23.298;2023-04-03T13:46:04;10.17;;;7.30;;
7835;SDS011;3963;42.658;23.298;2023-04-03T13:48:48;8.30;;;6.97;;
7835;SDS011;3963;42.658;23.298;2023-04-03T13:51:19;16.27;;;7.50;;
7835;SDS011;3963;42.658;23.298;2023-04-03T13:53:49;10.20;;;7.47;;
7835;SDS011;3963;42.658;23.298;2023-04-03T13:56:19;14.63;;;7.60;;
7835;SDS011;3963;42.658;23.298;2023-04-03T13:58:55;14.63;;;8.63;;
7835;SDS011;3963;42.658;23.298;2023-04-03T14:01:25;12.03;;;8.27;;
7835;SDS011;3963;42.658;23.298;2023-04-03T14:03:59;15.10;;;9.10;;
7835;SDS011;3963;42.658;23.298;2023-04-03T14:06:29;16.40;;;8.10;;
7835;SDS011;3963;42.658;23.298;2023-04-03T14:08:56;11.47;;;8.77;;
7835;SDS011;3963;42.658;23.298;2023-04-03T14:11:24;10.57;;;8.10;;
7835;SDS011;3963;42.658;23.298;2023-04-03T14:13:53;11.97;;;7.57;;
7835;SDS011;3963;42.658;23.298;2023-04-03T14:16:25;9.47;;;6.50;;
7835;SDS011;3963;42.658;23.298;2023-04-03T14:18:54;7.73;;;5.70;;
7835;SDS011;3963;42.658;23.298;2023-04-03T14:21:21;8.37;;;6.03;;
7835;SDS011;3963;42.658;23.298;2023-04-03T14:23:50;6.20;;;5.60;;
7835;SDS011;3963;42.658;23.298;2023-04-03T14:26:18;7.63;;;6.30;;
7835;SDS011;3963;42.658;23.298;2023-04-03T14:28:47;8.80;;;5.80;;
7835;SDS011;3963;42.658;23.298;2023-04-03T14:31:15;7.67;;;5.10;;
7835;SDS011;3963;42.658;23.298;2023-04-03T14:33:43;9.50;;;6.13;;
7835;SDS011;3963;42.658;23.298;2023-04-03T14:36:11;6.17;;;4.93;;
7835;SDS011;3963;42.658;23.298;2023-04-03T14:38:39;5.77;;;5.10;;
7835;SDS011;3963;42.658;23.298;2023-04-03T14:41:09;5.93;;;4.67;;
7835;SDS011;3963;42.658;23.298;2023-04-03T14:43:38;9.10;;;4.67;;
7835;SDS011;3963;42.658;23.298;2023-04-03T14:46:05;6.27;;;4.87;;
7835;SDS011;3963;42.658;23.298;2023-04-03T14:48:37;7.23;;;5.17;;
7835;SDS011;3963;42.658;23.298;2023-04-03T14:51:03;5.27;;;4.27;;
7835;SDS011;3963;42.658;23.298;2023-04-03T14:53:30;7.00;;;4.60;;
7835;SDS011;3963;42.658;23.298;2023-04-03T14:55:57;6.93;;;5.40;;
7835;SDS011;3963;42.658;23.298;2023-04-03T14:58:26;6.27;;;5.13;;
7835;SDS011;3963;42.658;23.298;2023-04-03T15:00:54;9.30;;;5.07;;
7835;SDS011;3963;42.658;23.298;2023-04-03T15:03:21;6.57;;;5.47;;
7835;SDS011;3963;42.658;23.298;2023-04-03T15:05:48;5.20;;;4.63;;
7835;SDS011;3963;42.658;23.298;2023-04-03T15:08:17;7.50;;;4.93;;
7835;SDS011;3963;42.658;23.298;2023-04-03T15:10:47;6.30;;;5.07;;
7835;SDS011;3963;42.658;23.298;2023-04-03T15:13:15;9.23;;;4.80;;
7835;SDS011;3963;42.658;23.298;2023-04-03T15:15:43;6.37;;;4.80;;
7835;SDS011;3963;42.658;23.298;2023-04-03T15:18:14;5.23;;;4.27;;
7835;SDS011;3963;42.658;23.298;2023-04-03T15:20:44;5.87;;;4.63;;
7835;SDS011;3963;42.658;23.298;2023-04-03T15:23:12;6.47;;;4.63;;